sensor_id;sensor_type;location;lat;lon;timestamp;temperature;humidity
7688;DHT22;30781;48.154;11.554;2022-08-19T00:00:07;19.90;99.90
7688;DHT22;30781;48.154;11.554;2022-08-19T00:02:48;19.90;99.90
7688;DHT22;30781;48.154;11.554;2022-08-19T00:05:17;20.00;99.90
7688;DHT22;30781;48.154;11.554;2022-08-19T00:07:45;20.00;99.90
7688;DHT22;30781;48.154;11.554;2022-08-19T00:10:21;20.00;99.90
7688;DHT22;30781;48.154;11.554;2022-08-19T00:12:49;20.00;99.90
7688;DHT22;30781;48.154;11.554;2022-08-19T00:15:20;20.00;99.90
7688;DHT22;30781;48.154;11.554;2022-08-19T00:17:49;20.10;99.90
7688;DHT22;30781;48.154;11.554;2022-08-19T00:20:33;20.10;99.90
7688;DHT22;30781;48.154;11.554;2022-08-19T00:23:00;20.10;99.90
7688;DHT22;30781;48.154;11.554;2022-08-19T00:25:48;20.10;99.90
7688;DHT22;30781;48.154;11.554;2022-08-19T00:28:29;20.10;99.90
7688;DHT22;30781;48.154;11.554;2022-08-19T00:30:57;20.10;99.90
7688;DHT22;30781;48.154;11.554;2022-08-19T00:33:24;20.10;99.90
7688;DHT22;30781;48.154;11.554;2022-08-19T00:35:55;20.10;99.90
7688;DHT22;30781;48.154;11.554;2022-08-19T00:38:22;20.20;99.90
7688;DHT22;30781;48.154;11.554;2022-08-19T00:40:54;20.20;99.90
7688;DHT22;30781;48.154;11.554;2022-08-19T00:43:24;20.20;99.90
7688;DHT22;30781;48.154;11.554;2022-08-19T00:45:52;20.20;99.90
7688;DHT22;30781;48.154;11.554;2022-08-19T00:48:20;20.20;99.90
7688;DHT22;30781;48.154;11.554;2022-08-19T00:50:53;20.20;99.90
7688;DHT22;30781;48.154;11.554;2022-08-19T00:53:24;20.20;99.90
7688;DHT22;30781;48.154;11.554;2022-08-19T00:56:23;20.30;99.90
7688;DHT22;30781;48.154;11.554;2022-08-19T00:59:05;20.20;99.90
7688;DHT22;30781;48.154;11.554;2022-08-19T01:01:35;20.20;99.90
7688;DHT22;30781;48.154;11.554;2022-08-19T01:04:03;20.20;99.90
7688;DHT22;30781;48.154;11.554;2022-08-19T01:06:31;20.10;99.90
7688;DHT22;30781;48.154;11.554;2022-08-19T01:09:00;20.10;99.90
7688;DHT22;30781;48.154;11.554;2022-08-19T01:11:30;20.00;99.90
7688;DHT22;30781;48.154;11.554;2022-08-19T01:13:59;20.00;99.90
7688;DHT22;30781;48.154;11.554;2022-08-19T01:16:28;20.00;99.90
7688;DHT22;30781;48.154;11.554;2022-08-19T01:19:00;20.00;99.90
7688;DHT22;30781;48.154;11.554;2022-08-19T01:21:32;20.00;99.90
7688;DHT22;30781;48.154;11.554;2022-08-19T01:24:25;20.00;99.90
7688;DHT22;30781;48.154;11.554;2022-08-19T01:26:54;19.90;99.90
7688;DHT22;30781;48.154;11.554;2022-08-19T01:29:23;19.90;99.90
7688;DHT22;30781;48.154;11.554;2022-08-19T01:31:50;19.90;99.90
7688;DHT22;30781;48.154;11.554;2022-08-19T01:34:36;19.90;99.90
7688;DHT22;30781;48.154;11.554;2022-08-19T01:37:06;19.90;99.90
7688;DHT22;30781;48.154;11.554;2022-08-19T01:39:54;19.80;99.90
7688;DHT22;30781;48.154;11.554;2022-08-19T01:42:21;19.80;99.90
7688;DHT22;30781;48.154;11.554;2022-08-19T01:44:53;19.80;99.90
7688;DHT22;30781;48.154;11.554;2022-08-19T01:47:43;19.80;99.90
7688;DHT22;30781;48.154;11.554;2022-08-19T01:50:11;19.80;99.90
7688;DHT22;30781;48.154;11.554;2022-08-19T01:52:39;19.90;99.90
7688;DHT22;30781;48.154;11.554;2022-08-19T01:55:12;19.90;99.90
7688;DHT22;30781;48.154;11.554;2022-08-19T01:57:53;19.90;99.90
7688;DHT22;30781;48.154;11.554;2022-08-19T02:00:24;19.90;99.90
7688;DHT22;30781;48.154;11.554;2022-08-19T02:02:57;19.90;99.90
7688;DHT22;30781;48.154;11.554;2022-08-19T02:05:36;20.00;99.90
7688;DHT22;30781;48.154;11.554;2022-08-19T02:08:04;20.00;99.90
7688;DHT22;30781;48.154;11.554;2022-08-19T02:10:37;20.00;99.90
7688;DHT22;30781;48.154;11.554;2022-08-19T02:13:11;20.10;99.90
7688;DHT22;30781;48.154;11.554;2022-08-19T02:15:39;20.10;99.90
7688;DHT22;30781;48.154;11.554;2022-08-19T02:18:06;20.10;99.90
7688;DHT22;30781;48.154;11.554;2022-08-19T02:20:34;20.10;99.90
7688;DHT22;30781;48.154;11.554;2022-08-19T02:23:02;20.10;99.90
7688;DHT22;30781;48.154;11.554;2022-08-19T02:25:52;20.10;99.90
7688;DHT22;30781;48.154;11.554;2022-08-19T02:28:20;20.10;99.90
7688;DHT22;30781;48.154;11.554;2022-08-19T02:30:47;20.10;99.90
7688;DHT22;30781;48.154;11.554;2022-08-19T02:33:16;20.20;99.90
7688;DHT22;30781;48.154;11.554;2022-08-19T02:35:48;20.20;99.90
7688;DHT22;30781;48.154;11.554;2022-08-19T02:38:15;20.20;99.90
7688;DHT22;30781;48.154;11.554;2022-08-19T02:40:56;20.20;99.90
7688;DHT22;30781;48.154;11.554;2022-08-19T02:43:45;20.20;99.90
7688;DHT22;30781;48.154;11.554;2022-08-19T02:46:14;20.20;99.90
7688;DHT22;30781;48.154;11.554;2022-08-19T02:48:51;20.10;99.90
7688;DHT22;30781;48.154;11.554;2022-08-19T02:51:22;20.20;99.90
7688;DHT22;30781;48.154;11.554;2022-08-19T02:53:50;20.20;99.90
7688;DHT22;30781;48.154;11.554;2022-08-19T02:56:21;20.20;99.90
7688;DHT22;30781;48.154;11.554;2022-08-19T02:58:49;20.20;99.90
7688;DHT22;30781;48.154;11.554;2022-08-19T03:01:21;20.20;99.90
7688;DHT22;30781;48.154;11.554;2022-08-19T03:03:49;20.20;99.90
7688;DHT22;30781;48.154;11.554;2022-08-19T03:06:19;20.20;99.90
7688;DHT22;30781;48.154;11.554;2022-08-19T03:08:47;20.10;99.90
7688;DHT22;30781;48.154;11.554;2022-08-19T03:11:16;20.10;99.90
7688;DHT22;30781;48.154;11.554;2022-08-19T03:13:46;20.10;99.90
7688;DHT22;30781;48.154;11.554;2022-08-19T03:16:15;20.00;99.90
7688;DHT22;30781;48.154;11.554;2022-08-19T03:18:44;20.00;99.90
7688;DHT22;30781;48.154;11.554;2022-08-19T03:21:56;20.00;99.90
7688;DHT22;30781;48.154;11.554;2022-08-19T03:25:05;20.00;99.90
7688;DHT22;30781;48.154;11.554;2022-08-19T03:27:33;20.00;99.90
7688;DHT22;30781;48.154;11.554;2022-08-19T03:30:08;20.00;99.90
7688;DHT22;30781;48.154;11.554;2022-08-19T03:32:39;20.00;99.90
7688;DHT22;30781;48.154;11.554;2022-08-19T03:35:07;20.00;99.90
7688;DHT22;30781;48.154;11.554;2022-08-19T03:37:34;20.10;99.90
7688;DHT22;30781;48.154;11.554;2022-08-19T03:40:05;20.10;99.90
7688;DHT22;30781;48.154;11.554;2022-08-19T03:42:32;20.10;99.90
7688;DHT22;30781;48.154;11.554;2022-08-19T03:45:00;20.10;99.90
7688;DHT22;30781;48.154;11.554;2022-08-19T03:47:31;20.10;99.90
7688;DHT22;30781;48.154;11.554;2022-08-19T03:49:58;20.20;99.90
7688;DHT22;30781;48.154;11.554;2022-08-19T03:52:26;20.20;99.90
7688;DHT22;30781;48.154;11.554;2022-08-19T03:54:53;20.20;99.90
7688;DHT22;30781;48.154;11.554;2022-08-19T03:57:22;20.20;99.90
7688;DHT22;30781;48.154;11.554;2022-08-19T03:59:51;20.20;99.90
7688;DHT22;30781;48.154;11.554;2022-08-19T04:02:19;20.20;99.90
7688;DHT22;30781;48.154;11.554;2022-08-19T04:04:48;20.20;99.90
7688;DHT22;30781;48.154;11.554;2022-08-19T04:07:15;20.20;99.90
7688;DHT22;30781;48.154;11.554;2022-08-19T04:09:47;20.20;99.90
7688;DHT22;30781;48.154;11.554;2022-08-19T04:12:34;20.20;99.90
7688;DHT22;30781;48.154;11.554;2022-08-19T04:18:34;20.20;99.90
7688;DHT22;30781;48.154;11.554;2022-08-19T04:21:04;20.20;99.90
7688;DHT22;30781;48.154;11.554;2022-08-19T04:23:31;20.20;99.90
7688;DHT22;30781;48.154;11.554;2022-08-19T04:25:59;20.20;99.90
7688;DHT22;30781;48.154;11.554;2022-08-19T04:28:26;20.20;99.90
7688;DHT22;30781;48.154;11.554;2022-08-19T04:30:59;20.20;99.90
7688;DHT22;30781;48.154;11.554;2022-08-19T04:33:29;20.30;99.90
7688;DHT22;30781;48.154;11.554;2022-08-19T04:35:56;20.30;99.90
7688;DHT22;30781;48.154;11.554;2022-08-19T04:38:36;20.30;99.90
7688;DHT22;30781;48.154;11.554;2022-08-19T04:41:07;20.30;99.90
7688;DHT22;30781;48.154;11.554;2022-08-19T04:43:51;20.30;99.90
7688;DHT22;30781;48.154;11.554;2022-08-19T04:46:26;20.30;99.90
7688;DHT22;30781;48.154;11.554;2022-08-19T04:48:56;20.30;99.90
7688;DHT22;30781;48.154;11.554;2022-08-19T04:51:24;20.30;99.90
7688;DHT22;30781;48.154;11.554;2022-08-19T04:53:53;20.30;99.90
7688;DHT22;30781;48.154;11.554;2022-08-19T04:56:21;20.40;99.90
7688;DHT22;30781;48.154;11.554;2022-08-19T04:58:51;20.40;99.90
7688;DHT22;30781;48.154;11.554;2022-08-19T05:01:21;20.40;99.90
7688;DHT22;30781;48.154;11.554;2022-08-19T05:03:50;20.40;99.90
7688;DHT22;30781;48.154;11.554;2022-08-19T05:06:21;20.40;99.90
7688;DHT22;30781;48.154;11.554;2022-08-19T05:08:49;20.40;99.90
7688;DHT22;30781;48.154;11.554;2022-08-19T05:11:27;20.40;99.90
7688;DHT22;30781;48.154;11.554;2022-08-19T05:13:55;20.40;99.90
7688;DHT22;30781;48.154;11.554;2022-08-19T05:16:24;20.50;99.90
7688;DHT22;30781;48.154;11.554;2022-08-19T05:19:09;20.50;99.90
7688;DHT22;30781;48.154;11.554;2022-08-19T05:21:54;20.50;99.70
7688;DHT22;30781;48.154;11.554;2022-08-19T05:24:39;20.50;99.80
7688;DHT22;30781;48.154;11.554;2022-08-19T05:27:08;20.40;99.70
7688;DHT22;30781;48.154;11.554;2022-08-19T05:29:41;20.40;99.70
7688;DHT22;30781;48.154;11.554;2022-08-19T05:32:10;20.50;99.90
7688;DHT22;30781;48.154;11.554;2022-08-19T05:34:38;20.50;99.80
7688;DHT22;30781;48.154;11.554;2022-08-19T05:37:06;20.50;99.80
7688;DHT22;30781;48.154;11.554;2022-08-19T05:39:36;20.50;99.80
7688;DHT22;30781;48.154;11.554;2022-08-19T05:42:07;20.50;99.70
7688;DHT22;30781;48.154;11.554;2022-08-19T05:44:44;20.50;99.70
7688;DHT22;30781;48.154;11.554;2022-08-19T05:47:13;20.50;99.80
7688;DHT22;30781;48.154;11.554;2022-08-19T05:49:41;20.60;99.90
7688;DHT22;30781;48.154;11.554;2022-08-19T05:52:10;20.60;99.90
7688;DHT22;30781;48.154;11.554;2022-08-19T05:54:41;20.70;99.90
7688;DHT22;30781;48.154;11.554;2022-08-19T05:57:15;20.70;99.90
7688;DHT22;30781;48.154;11.554;2022-08-19T05:59:43;20.70;99.80
7688;DHT22;30781;48.154;11.554;2022-08-19T06:02:16;20.80;99.90
7688;DHT22;30781;48.154;11.554;2022-08-19T06:04:43;20.80;99.80
7688;DHT22;30781;48.154;11.554;2022-08-19T06:07:10;20.80;99.90
7688;DHT22;30781;48.154;11.554;2022-08-19T06:09:41;20.80;99.70
7688;DHT22;30781;48.154;11.554;2022-08-19T06:12:08;20.90;99.90
7688;DHT22;30781;48.154;11.554;2022-08-19T06:14:44;20.90;99.80
7688;DHT22;30781;48.154;11.554;2022-08-19T06:17:13;20.90;99.70
7688;DHT22;30781;48.154;11.554;2022-08-19T06:19:40;20.90;99.50
7688;DHT22;30781;48.154;11.554;2022-08-19T06:22:09;21.00;99.50
7688;DHT22;30781;48.154;11.554;2022-08-19T06:24:37;21.00;99.30
7688;DHT22;30781;48.154;11.554;2022-08-19T06:27:06;21.00;99.40
7688;DHT22;30781;48.154;11.554;2022-08-19T06:29:34;21.00;99.20
7688;DHT22;30781;48.154;11.554;2022-08-19T06:32:16;21.10;99.20
7688;DHT22;30781;48.154;11.554;2022-08-19T06:34:48;21.10;99.30
7688;DHT22;30781;48.154;11.554;2022-08-19T06:37:17;21.10;99.20
7688;DHT22;30781;48.154;11.554;2022-08-19T06:39:50;21.10;99.20
7688;DHT22;30781;48.154;11.554;2022-08-19T06:42:17;21.20;99.50
7688;DHT22;30781;48.154;11.554;2022-08-19T06:44:46;21.20;99.30
7688;DHT22;30781;48.154;11.554;2022-08-19T06:47:18;21.20;99.70
7688;DHT22;30781;48.154;11.554;2022-08-19T06:49:46;21.20;99.50
7688;DHT22;30781;48.154;11.554;2022-08-19T06:52:16;21.20;99.50
7688;DHT22;30781;48.154;11.554;2022-08-19T06:54:47;21.30;99.70
7688;DHT22;30781;48.154;11.554;2022-08-19T06:57:14;21.30;99.40
7688;DHT22;30781;48.154;11.554;2022-08-19T06:59:41;21.30;99.50
7688;DHT22;30781;48.154;11.554;2022-08-19T07:02:09;21.20;99.70
7688;DHT22;30781;48.154;11.554;2022-08-19T07:04:37;21.30;99.70
7688;DHT22;30781;48.154;11.554;2022-08-19T07:07:07;21.30;99.90
7688;DHT22;30781;48.154;11.554;2022-08-19T07:09:37;21.30;99.90
7688;DHT22;30781;48.154;11.554;2022-08-19T07:12:05;21.40;99.90
7688;DHT22;30781;48.154;11.554;2022-08-19T07:14:34;21.40;99.90
7688;DHT22;30781;48.154;11.554;2022-08-19T07:17:04;21.50;99.90
7688;DHT22;30781;48.154;11.554;2022-08-19T07:19:39;21.50;99.90
7688;DHT22;30781;48.154;11.554;2022-08-19T07:22:09;21.70;99.90
7688;DHT22;30781;48.154;11.554;2022-08-19T07:24:44;21.80;99.90
7688;DHT22;30781;48.154;11.554;2022-08-19T07:27:14;21.90;99.90
7688;DHT22;30781;48.154;11.554;2022-08-19T07:29:46;21.90;99.80
7688;DHT22;30781;48.154;11.554;2022-08-19T07:32:16;22.10;99.90
7688;DHT22;30781;48.154;11.554;2022-08-19T07:34:47;22.20;99.70
7688;DHT22;30781;48.154;11.554;2022-08-19T07:37:24;22.30;99.20
7688;DHT22;30781;48.154;11.554;2022-08-19T07:39:54;22.40;99.10
7688;DHT22;30781;48.154;11.554;2022-08-19T07:42:26;22.70;98.80
7688;DHT22;30781;48.154;11.554;2022-08-19T07:44:55;22.80;98.20
7688;DHT22;30781;48.154;11.554;2022-08-19T07:47:22;22.90;98.20
7688;DHT22;30781;48.154;11.554;2022-08-19T07:49:54;23.00;98.00
7688;DHT22;30781;48.154;11.554;2022-08-19T07:52:22;23.00;97.40
7688;DHT22;30781;48.154;11.554;2022-08-19T07:54:49;23.00;97.70
7688;DHT22;30781;48.154;11.554;2022-08-19T07:57:18;22.90;97.40
7688;DHT22;30781;48.154;11.554;2022-08-19T07:59:45;22.90;97.40
7688;DHT22;30781;48.154;11.554;2022-08-19T08:02:12;22.80;97.40
7688;DHT22;30781;48.154;11.554;2022-08-19T08:04:40;22.80;97.50
7688;DHT22;30781;48.154;11.554;2022-08-19T08:07:26;22.70;97.50
7688;DHT22;30781;48.154;11.554;2022-08-19T08:10:11;22.70;97.60
7688;DHT22;30781;48.154;11.554;2022-08-19T08:12:39;22.60;97.70
7688;DHT22;30781;48.154;11.554;2022-08-19T08:15:13;22.60;97.80
7688;DHT22;30781;48.154;11.554;2022-08-19T08:17:42;22.60;97.60
7688;DHT22;30781;48.154;11.554;2022-08-19T08:20:11;22.50;97.80
7688;DHT22;30781;48.154;11.554;2022-08-19T08:22:45;22.40;97.80
7688;DHT22;30781;48.154;11.554;2022-08-19T08:25:44;22.40;97.90
7688;DHT22;30781;48.154;11.554;2022-08-19T08:28:12;22.30;97.90
7688;DHT22;30781;48.154;11.554;2022-08-19T08:30:41;22.20;98.10
7688;DHT22;30781;48.154;11.554;2022-08-19T08:33:12;22.20;98.20
7688;DHT22;30781;48.154;11.554;2022-08-19T08:35:53;22.10;98.50
7688;DHT22;30781;48.154;11.554;2022-08-19T08:38:35;22.10;98.40
7688;DHT22;30781;48.154;11.554;2022-08-19T08:41:07;22.10;98.40
7688;DHT22;30781;48.154;11.554;2022-08-19T08:43:38;22.10;98.50
7688;DHT22;30781;48.154;11.554;2022-08-19T08:46:13;22.10;98.50
7688;DHT22;30781;48.154;11.554;2022-08-19T08:48:44;22.10;98.30
7688;DHT22;30781;48.154;11.554;2022-08-19T08:51:21;22.10;98.20
7688;DHT22;30781;48.154;11.554;2022-08-19T08:54:06;22.00;98.40
7688;DHT22;30781;48.154;11.554;2022-08-19T08:56:34;21.90;98.40
7688;DHT22;30781;48.154;11.554;2022-08-19T08:59:05;21.90;98.60
7688;DHT22;30781;48.154;11.554;2022-08-19T09:01:36;21.90;99.00
7688;DHT22;30781;48.154;11.554;2022-08-19T09:04:05;21.90;99.10
7688;DHT22;30781;48.154;11.554;2022-08-19T09:06:42;21.90;99.10
7688;DHT22;30781;48.154;11.554;2022-08-19T09:09:20;21.90;99.10
7688;DHT22;30781;48.154;11.554;2022-08-19T09:12:00;21.90;99.10
7688;DHT22;30781;48.154;11.554;2022-08-19T09:14:39;21.90;99.10
7688;DHT22;30781;48.154;11.554;2022-08-19T09:17:13;21.90;99.10
7688;DHT22;30781;48.154;11.554;2022-08-19T09:19:50;22.00;99.10
7688;DHT22;30781;48.154;11.554;2022-08-19T09:22:18;22.00;99.20
7688;DHT22;30781;48.154;11.554;2022-08-19T09:24:50;22.00;99.30
7688;DHT22;30781;48.154;11.554;2022-08-19T09:27:20;22.10;99.30
7688;DHT22;30781;48.154;11.554;2022-08-19T09:29:57;22.00;99.20
7688;DHT22;30781;48.154;11.554;2022-08-19T09:32:25;22.00;99.20
7688;DHT22;30781;48.154;11.554;2022-08-19T09:34:53;21.90;99.30
7688;DHT22;30781;48.154;11.554;2022-08-19T09:37:32;21.90;99.20
7688;DHT22;30781;48.154;11.554;2022-08-19T09:40:15;21.90;99.50
7688;DHT22;30781;48.154;11.554;2022-08-19T09:42:44;22.00;99.50
7688;DHT22;30781;48.154;11.554;2022-08-19T09:45:13;22.00;99.60
7688;DHT22;30781;48.154;11.554;2022-08-19T09:47:42;22.00;99.50
7688;DHT22;30781;48.154;11.554;2022-08-19T09:50:12;22.10;99.90
7688;DHT22;30781;48.154;11.554;2022-08-19T09:52:40;22.20;99.90
7688;DHT22;30781;48.154;11.554;2022-08-19T09:55:15;22.30;99.90
7688;DHT22;30781;48.154;11.554;2022-08-19T09:57:43;22.40;99.90
7688;DHT22;30781;48.154;11.554;2022-08-19T10:00:11;22.50;99.80
7688;DHT22;30781;48.154;11.554;2022-08-19T10:02:38;22.60;99.80
7688;DHT22;30781;48.154;11.554;2022-08-19T10:05:08;22.70;99.60
7688;DHT22;30781;48.154;11.554;2022-08-19T10:07:56;22.90;99.70
7688;DHT22;30781;48.154;11.554;2022-08-19T10:10:35;23.10;99.10
7688;DHT22;30781;48.154;11.554;2022-08-19T10:13:07;23.30;98.60
7688;DHT22;30781;48.154;11.554;2022-08-19T10:15:38;23.50;98.40
7688;DHT22;30781;48.154;11.554;2022-08-19T10:18:06;23.60;97.90
7688;DHT22;30781;48.154;11.554;2022-08-19T10:20:37;23.80;97.80
7688;DHT22;30781;48.154;11.554;2022-08-19T10:23:04;24.00;98.10
7688;DHT22;30781;48.154;11.554;2022-08-19T10:25:33;24.30;97.30
7688;DHT22;30781;48.154;11.554;2022-08-19T10:28:01;24.60;97.40
7688;DHT22;30781;48.154;11.554;2022-08-19T10:30:31;24.90;97.10
7688;DHT22;30781;48.154;11.554;2022-08-19T10:32:59;25.40;96.60
7688;DHT22;30781;48.154;11.554;2022-08-19T10:35:26;25.70;96.20
7688;DHT22;30781;48.154;11.554;2022-08-19T10:37:55;26.00;95.80
7688;DHT22;30781;48.154;11.554;2022-08-19T10:40:25;26.30;94.90
7688;DHT22;30781;48.154;11.554;2022-08-19T10:42:54;26.50;94.10
7688;DHT22;30781;48.154;11.554;2022-08-19T10:45:24;26.70;94.20
7688;DHT22;30781;48.154;11.554;2022-08-19T10:47:54;26.80;92.90
7688;DHT22;30781;48.154;11.554;2022-08-19T10:50:25;26.90;92.60
7688;DHT22;30781;48.154;11.554;2022-08-19T10:53:09;26.90;92.30
7688;DHT22;30781;48.154;11.554;2022-08-19T10:55:38;27.00;92.00
7688;DHT22;30781;48.154;11.554;2022-08-19T10:58:24;27.00;91.90
7688;DHT22;30781;48.154;11.554;2022-08-19T11:00:53;27.10;92.10
7688;DHT22;30781;48.154;11.554;2022-08-19T11:03:22;27.20;91.90
7688;DHT22;30781;48.154;11.554;2022-08-19T11:05:57;27.30;92.00
7688;DHT22;30781;48.154;11.554;2022-08-19T11:08:25;27.40;91.60
7688;DHT22;30781;48.154;11.554;2022-08-19T11:10:54;27.40;91.20
7688;DHT22;30781;48.154;11.554;2022-08-19T11:13:26;27.50;90.90
7688;DHT22;30781;48.154;11.554;2022-08-19T11:15:58;27.40;90.70
7688;DHT22;30781;48.154;11.554;2022-08-19T11:18:26;27.30;90.90
7688;DHT22;30781;48.154;11.554;2022-08-19T11:20:54;27.30;90.80
7688;DHT22;30781;48.154;11.554;2022-08-19T11:23:21;27.20;91.30
7688;DHT22;30781;48.154;11.554;2022-08-19T11:25:49;27.10;90.90
7688;DHT22;30781;48.154;11.554;2022-08-19T11:28:17;27.00;90.70
7688;DHT22;30781;48.154;11.554;2022-08-19T11:30:46;26.90;91.00
7688;DHT22;30781;48.154;11.554;2022-08-19T11:33:16;26.80;90.80
7688;DHT22;30781;48.154;11.554;2022-08-19T11:35:44;26.70;90.70
7688;DHT22;30781;48.154;11.554;2022-08-19T11:38:12;26.70;90.80
7688;DHT22;30781;48.154;11.554;2022-08-19T11:40:40;26.70;91.10
7688;DHT22;30781;48.154;11.554;2022-08-19T11:43:08;26.80;90.80
7688;DHT22;30781;48.154;11.554;2022-08-19T11:45:36;26.80;90.50
7688;DHT22;30781;48.154;11.554;2022-08-19T11:48:07;26.90;90.50
7688;DHT22;30781;48.154;11.554;2022-08-19T11:50:34;27.00;89.80
7688;DHT22;30781;48.154;11.554;2022-08-19T11:53:09;27.20;90.30
7688;DHT22;30781;48.154;11.554;2022-08-19T11:55:37;27.30;90.00
7688;DHT22;30781;48.154;11.554;2022-08-19T11:58:15;27.50;89.60
7688;DHT22;30781;48.154;11.554;2022-08-19T12:00:43;27.60;88.20
7688;DHT22;30781;48.154;11.554;2022-08-19T12:03:13;27.60;88.20
7688;DHT22;30781;48.154;11.554;2022-08-19T12:05:46;27.70;86.80
7688;DHT22;30781;48.154;11.554;2022-08-19T12:08:16;27.60;87.00
7688;DHT22;30781;48.154;11.554;2022-08-19T12:10:45;27.50;86.40
7688;DHT22;30781;48.154;11.554;2022-08-19T12:13:13;27.30;85.90
7688;DHT22;30781;48.154;11.554;2022-08-19T12:15:44;27.10;87.50
7688;DHT22;30781;48.154;11.554;2022-08-19T12:18:18;27.00;87.90
7688;DHT22;30781;48.154;11.554;2022-08-19T12:20:47;27.00;87.30
7688;DHT22;30781;48.154;11.554;2022-08-19T12:23:15;26.90;86.90
7688;DHT22;30781;48.154;11.554;2022-08-19T12:25:47;26.70;87.00
7688;DHT22;30781;48.154;11.554;2022-08-19T12:28:18;26.60;87.90
7688;DHT22;30781;48.154;11.554;2022-08-19T12:30:46;26.50;88.00
7688;DHT22;30781;48.154;11.554;2022-08-19T12:33:15;26.40;87.90
7688;DHT22;30781;48.154;11.554;2022-08-19T12:35:45;26.40;87.90
7688;DHT22;30781;48.154;11.554;2022-08-19T12:38:22;26.40;88.40
7688;DHT22;30781;48.154;11.554;2022-08-19T12:40:50;26.30;88.60
7688;DHT22;30781;48.154;11.554;2022-08-19T12:43:18;26.30;88.00
7688;DHT22;30781;48.154;11.554;2022-08-19T12:45:47;26.30;87.90
7688;DHT22;30781;48.154;11.554;2022-08-19T12:48:16;26.30;87.60
7688;DHT22;30781;48.154;11.554;2022-08-19T12:50:45;26.30;88.10
7688;DHT22;30781;48.154;11.554;2022-08-19T12:53:13;26.30;88.40
7688;DHT22;30781;48.154;11.554;2022-08-19T12:55:42;26.40;88.20
7688;DHT22;30781;48.154;11.554;2022-08-19T12:58:10;26.50;88.10
7688;DHT22;30781;48.154;11.554;2022-08-19T13:00:38;26.60;86.60
7688;DHT22;30781;48.154;11.554;2022-08-19T13:03:06;26.70;85.90
7688;DHT22;30781;48.154;11.554;2022-08-19T13:05:35;26.80;85.80
7688;DHT22;30781;48.154;11.554;2022-08-19T13:08:03;26.90;85.50
7688;DHT22;30781;48.154;11.554;2022-08-19T13:10:38;26.90;85.10
7688;DHT22;30781;48.154;11.554;2022-08-19T13:13:08;27.00;85.00
7688;DHT22;30781;48.154;11.554;2022-08-19T13:15:40;26.90;85.00
7688;DHT22;30781;48.154;11.554;2022-08-19T13:18:09;26.80;84.30
7688;DHT22;30781;48.154;11.554;2022-08-19T13:20:43;26.70;83.90
7688;DHT22;30781;48.154;11.554;2022-08-19T13:23:10;26.70;84.70
7688;DHT22;30781;48.154;11.554;2022-08-19T13:25:38;26.80;84.70
7688;DHT22;30781;48.154;11.554;2022-08-19T13:28:07;26.80;84.30
7688;DHT22;30781;48.154;11.554;2022-08-19T13:30:35;26.80;84.90
7688;DHT22;30781;48.154;11.554;2022-08-19T13:33:20;26.80;84.50
7688;DHT22;30781;48.154;11.554;2022-08-19T13:35:50;26.80;84.40
7688;DHT22;30781;48.154;11.554;2022-08-19T13:38:23;26.80;84.30
7688;DHT22;30781;48.154;11.554;2022-08-19T13:40:54;26.60;84.80
7688;DHT22;30781;48.154;11.554;2022-08-19T13:43:30;26.40;85.80
7688;DHT22;30781;48.154;11.554;2022-08-19T13:45:57;26.30;86.90
7688;DHT22;30781;48.154;11.554;2022-08-19T13:48:26;26.20;87.10
7688;DHT22;30781;48.154;11.554;2022-08-19T13:50:56;26.20;87.00
7688;DHT22;30781;48.154;11.554;2022-08-19T13:53:25;26.10;87.30
7688;DHT22;30781;48.154;11.554;2022-08-19T13:55:53;26.00;87.80
7688;DHT22;30781;48.154;11.554;2022-08-19T13:58:21;26.00;88.30
7688;DHT22;30781;48.154;11.554;2022-08-19T14:00:50;26.10;88.10
7688;DHT22;30781;48.154;11.554;2022-08-19T14:03:17;26.30;86.90
7688;DHT22;30781;48.154;11.554;2022-08-19T14:05:45;26.40;87.70
7688;DHT22;30781;48.154;11.554;2022-08-19T14:08:15;26.40;86.20
7688;DHT22;30781;48.154;11.554;2022-08-19T14:10:42;26.40;86.50
7688;DHT22;30781;48.154;11.554;2022-08-19T14:13:13;26.30;86.60
7688;DHT22;30781;48.154;11.554;2022-08-19T14:15:41;26.40;86.90
7688;DHT22;30781;48.154;11.554;2022-08-19T14:18:09;26.50;86.60
7688;DHT22;30781;48.154;11.554;2022-08-19T14:20:37;26.60;85.50
7688;DHT22;30781;48.154;11.554;2022-08-19T14:23:04;26.60;85.10
7688;DHT22;30781;48.154;11.554;2022-08-19T14:25:34;26.70;84.90
7688;DHT22;30781;48.154;11.554;2022-08-19T14:28:06;26.90;84.40
7688;DHT22;30781;48.154;11.554;2022-08-19T14:30:42;26.90;83.90
7688;DHT22;30781;48.154;11.554;2022-08-19T14:33:10;26.90;84.00
7688;DHT22;30781;48.154;11.554;2022-08-19T14:35:39;26.80;84.00
7688;DHT22;30781;48.154;11.554;2022-08-19T14:38:16;26.60;84.80
7688;DHT22;30781;48.154;11.554;2022-08-19T14:40:45;26.60;85.60
7688;DHT22;30781;48.154;11.554;2022-08-19T14:43:14;26.50;85.00
7688;DHT22;30781;48.154;11.554;2022-08-19T14:45:54;26.40;84.50
7688;DHT22;30781;48.154;11.554;2022-08-19T14:48:22;26.30;84.90
7688;DHT22;30781;48.154;11.554;2022-08-19T14:50:50;26.20;85.30
7688;DHT22;30781;48.154;11.554;2022-08-19T14:53:18;26.10;85.70
7688;DHT22;30781;48.154;11.554;2022-08-19T14:55:47;26.00;86.00
7688;DHT22;30781;48.154;11.554;2022-08-19T14:58:14;25.90;86.20
7688;DHT22;30781;48.154;11.554;2022-08-19T15:00:41;25.90;86.40
7688;DHT22;30781;48.154;11.554;2022-08-19T15:03:09;25.70;87.20
7688;DHT22;30781;48.154;11.554;2022-08-19T15:05:37;25.70;87.50
7688;DHT22;30781;48.154;11.554;2022-08-19T15:08:06;25.70;86.90
7688;DHT22;30781;48.154;11.554;2022-08-19T15:10:34;25.70;87.30
7688;DHT22;30781;48.154;11.554;2022-08-19T15:13:03;25.60;87.50
7688;DHT22;30781;48.154;11.554;2022-08-19T15:15:31;25.40;87.60
7688;DHT22;30781;48.154;11.554;2022-08-19T15:18:01;25.30;87.90
7688;DHT22;30781;48.154;11.554;2022-08-19T15:20:31;25.10;88.50
7688;DHT22;30781;48.154;11.554;2022-08-19T15:23:04;25.10;89.10
7688;DHT22;30781;48.154;11.554;2022-08-19T15:25:31;24.90;89.40
7688;DHT22;30781;48.154;11.554;2022-08-19T15:28:00;24.80;89.80
7688;DHT22;30781;48.154;11.554;2022-08-19T15:30:30;24.60;90.10
7688;DHT22;30781;48.154;11.554;2022-08-19T15:33:00;24.50;91.20
7688;DHT22;30781;48.154;11.554;2022-08-19T15:35:40;24.30;91.90
7688;DHT22;30781;48.154;11.554;2022-08-19T15:38:11;24.10;92.70
7688;DHT22;30781;48.154;11.554;2022-08-19T15:40:41;23.80;93.00
7688;DHT22;30781;48.154;11.554;2022-08-19T15:43:11;23.60;93.40
7688;DHT22;30781;48.154;11.554;2022-08-19T15:45:40;23.40;94.20
7688;DHT22;30781;48.154;11.554;2022-08-19T15:48:07;23.40;94.90
7688;DHT22;30781;48.154;11.554;2022-08-19T15:50:35;23.30;95.20
7688;DHT22;30781;48.154;11.554;2022-08-19T15:53:06;23.30;95.60
7688;DHT22;30781;48.154;11.554;2022-08-19T15:55:36;23.30;95.10
7688;DHT22;30781;48.154;11.554;2022-08-19T15:58:09;23.30;95.20